Bill, Wyoming
Current Conditions -  °F | °C
As of 10:53 PM on Thursday 27 Nov 2014 (Local Time) from KDGW Reporting Station
Clear Clear  
Wind Chill: 52°   Ceiling: Unl
Heat Index: 52°   Visibility: 10mi
Dew Point: 25°   Wind: 13mph
Humidity: 35%   Direction: 270°W
Pressure: 29.95"   Gusts: 20mph
Location:  42.76°N, 105.39°W
Report Text: KDGW 280553Z AUTO 27011G17KT 10SM CLR 11/M04 A2995 RMK AO2 SLP117 T01111039 10117 20044 56014
Loading
Personal Weather Stations






























Interactive Weather Map New forecast layout! Learn more

10-Day Weather Forecast

Advertisements
Track Severe Weather on mobile